Time,TemperatureF,DewpointF,PressureIn,WindDirection,WindDirectionDegrees,WindSpeedMPH,WindSpeedGustMPH,Humidity,HourlyPrecipIn,Conditions,Clouds,dailyrainin,SoftwareType,DateUTC
2013-04-03 00:03:00,51.0,49.0,30.08,East,90,0.0,0.0,94,0.00,,,0.00,,2013-04-03 04:03:00,
2013-04-03 00:13:00,51.0,49.0,30.08,East,90,0.0,0.0,94,0.00,,,0.00,,2013-04-03 04:13:00,
2013-04-03 00:23:00,51.0,50.0,30.08,East,90,0.0,2.0,95,0.00,,,0.00,,2013-04-03 04:23:00,
2013-04-03 00:33:00,51.0,49.0,30.09,East,89,0.0,0.0,94,0.00,,,0.00,,2013-04-03 04:33:00,
2013-04-03 00:43:00,51.0,49.0,30.09,East,89,0.0,0.0,94,0.00,,,0.00,,2013-04-03 04:43:00,
2013-04-03 00:53:00,51.0,49.0,30.09,East,90,0.0,0.0,94,0.00,,,0.00,,2013-04-03 04:53:00,
2013-04-03 01:03:00,51.0,49.0,30.09,East,89,0.0,0.0,94,0.00,,,0.00,,2013-04-03 05:03:00,
2013-04-03 01:12:00,51.0,49.0,30.09,East,89,0.0,0.0,94,0.00,,,0.00,,2013-04-03 05:12:00,
2013-04-03 01:22:00,51.0,50.0,30.09,East,89,0.0,0.0,95,0.00,,,0.00,,2013-04-03 05:22:00,
2013-04-03 01:32:00,50.0,49.0,30.09,East,90,0.0,0.0,95,0.00,,,0.00,,2013-04-03 05:32:00,
2013-04-03 01:42:00,50.0,49.0,30.09,East,90,0.0,0.0,95,0.00,,,0.00,,2013-04-03 05:42:00,
2013-04-03 01:53:00,50.0,49.0,30.08,East,90,0.0,0.0,95,0.00,,,0.00,,2013-04-03 05:53:00,
2013-04-03 02:02:00,50.0,49.0,30.09,East,90,0.0,0.0,96,0.00,,,0.00,,2013-04-03 06:02:00,
2013-04-03 02:12:00,50.0,49.0,30.09,East,90,0.0,0.0,96,0.00,,,0.00,,2013-04-03 06:12:00,
2013-04-03 02:22:00,50.0,49.0,30.07,East,90,0.0,0.0,96,0.00,,,0.00,,2013-04-03 06:22:00,
2013-04-03 02:32:00,50.0,49.0,30.07,East,89,0.0,0.0,96,0.00,,,0.00,,2013-04-03 06:32:00,
2013-04-03 02:42:00,50.0,49.0,30.07,East,89,0.0,0.0,96,0.00,,,0.00,,2013-04-03 06:42:00,
2013-04-03 02:52:00,49.0,48.0,30.06,East,89,0.0,0.0,96,0.00,,,0.00,,2013-04-03 06:52:00,
2013-04-03 03:02:00,49.0,48.0,30.06,East,90,0.0,0.0,96,0.00,,,0.00,,2013-04-03 07:02:00,
2013-04-03 03:12:00,49.0,48.0,30.06,East,90,0.0,0.0,96,0.00,,,0.00,,2013-04-03 07:12:00,
2013-04-03 03:23:00,49.0,48.0,30.06,East,90,0.0,0.0,96,0.00,,,0.00,,2013-04-03 07:23:00,
2013-04-03 03:33:00,49.0,48.0,30.06,East,90,0.0,0.0,96,0.00,,,0.00,,2013-04-03 07:33:00,
2013-04-03 03:42:00,49.0,48.0,30.06,East,90,0.0,0.0,96,0.00,,,0.00,,2013-04-03 07:42:00,
2013-04-03 03:53:00,49.0,48.0,30.06,East,90,0.0,0.0,96,0.00,,,0.00,,2013-04-03 07:53:00,
2013-04-03 04:03:00,49.0,48.0,30.05,East,90,0.0,0.0,97,0.00,,,0.00,,2013-04-03 08:03:00,
2013-04-03 04:12:00,49.0,48.0,30.05,East,90,0.0,0.0,97,0.00,,,0.00,,2013-04-03 08:12:00,
2013-04-03 04:22:00,49.0,48.0,30.05,East,90,1.0,2.0,97,0.00,,,0.00,,2013-04-03 08:22:00,
2013-04-03 04:32:00,49.0,48.0,30.05,East,90,0.0,1.0,98,0.00,,,0.00,,2013-04-03 08:32:00,
2013-04-03 04:43:00,49.0,48.0,30.05,East,90,0.0,1.0,98,0.00,,,0.00,,2013-04-03 08:43:00,
2013-04-03 04:52:00,49.0,48.0,30.05,East,90,0.0,1.0,97,0.00,,,0.00,,2013-04-03 08:52:00,
2013-04-03 05:02:00,49.0,48.0,30.04,East,90,1.0,2.0,97,0.00,,,0.00,,2013-04-03 09:02:00,
2013-04-03 05:12:00,49.0,48.0,30.04,East,90,1.0,2.0,97,0.00,,,0.00,,2013-04-03 09:12:00,
2013-04-03 05:22:00,49.0,48.0,30.04,East,90,0.0,2.0,97,0.00,,,0.00,,2013-04-03 09:22:00,
2013-04-03 05:33:00,49.0,48.0,30.05,East,90,0.0,2.0,97,0.00,,,0.00,,2013-04-03 09:33:00,
2013-04-03 05:43:00,49.0,48.0,30.05,East,90,0.0,2.0,97,0.00,,,0.00,,2013-04-03 09:43:00,
2013-04-03 05:53:00,49.0,48.0,30.05,East,90,0.0,2.0,98,0.00,,,0.00,,2013-04-03 09:53:00,
2013-04-03 06:03:00,49.0,48.0,30.05,East,89,0.0,0.0,97,0.00,,,0.00,,2013-04-03 10:03:00,
2013-04-03 06:12:00,49.0,48.0,30.05,East,89,0.0,0.0,97,0.00,,,0.00,,2013-04-03 10:12:00,
2013-04-03 06:22:00,49.0,48.0,30.06,East,90,0.0,0.0,97,0.00,,,0.00,,2013-04-03 10:22:00,
2013-04-03 06:33:00,48.0,47.0,30.06,East,90,0.0,0.0,97,0.00,,,0.00,,2013-04-03 10:33:00,
2013-04-03 06:43:00,48.0,47.0,30.06,East,90,0.0,0.0,97,0.00,,,0.00,,2013-04-03 10:43:00,
2013-04-03 06:53:00,48.0,47.0,30.07,East,90,0.0,0.0,98,0.00,,,0.00,,2013-04-03 10:53:00,
2013-04-03 07:02:00,48.0,47.0,30.08,East,90,0.0,0.0,98,0.00,,,0.00,,2013-04-03 11:02:00,
2013-04-03 07:12:00,48.0,47.0,30.08,East,90,0.0,0.0,98,0.00,,,0.00,,2013-04-03 11:12:00,
2013-04-03 07:23:00,48.0,47.0,30.09,East,89,0.0,0.0,98,0.00,,,0.00,,2013-04-03 11:23:00,
2013-04-03 07:32:00,48.0,47.0,30.09,East,89,0.0,0.0,98,0.00,,,0.00,,2013-04-03 11:32:00,
2013-04-03 07:42:00,48.0,47.0,30.09,East,89,0.0,0.0,98,0.00,,,0.00,,2013-04-03 11:42:00,
2013-04-03 07:53:00,48.0,47.0,30.10,East,89,0.0,0.0,98,0.00,,,0.00,,2013-04-03 11:53:00,
2013-04-03 08:02:00,49.0,48.0,30.11,East,89,0.0,0.0,98,0.00,,,0.00,,2013-04-03 12:02:00,
2013-04-03 08:13:00,49.0,48.0,30.11,East,89,0.0,0.0,98,0.00,,,0.00,,2013-04-03 12:13:00,
2013-04-03 08:22:00,51.0,51.0,30.13,East,90,0.0,2.0,99,0.00,,,0.00,,2013-04-03 12:22:00,
2013-04-03 08:33:00,52.0,52.0,30.13,East,90,0.0,1.0,99,0.00,,,0.00,,2013-04-03 12:33:00,
2013-04-03 08:42:00,52.0,52.0,30.13,East,90,0.0,1.0,99,0.00,,,0.00,,2013-04-03 12:42:00,
2013-04-03 08:52:00,54.0,54.0,30.13,North,4,4.0,9.0,99,0.00,,,0.00,,2013-04-03 12:52:00,
2013-04-03 09:02:00,54.0,53.0,30.13,North,359,4.0,8.0,98,0.00,,,0.00,,2013-04-03 13:02:00,
2013-04-03 09:12:00,54.0,53.0,30.13,North,359,4.0,8.0,98,0.00,,,0.00,,2013-04-03 13:12:00,
2013-04-03 09:22:00,54.0,53.0,30.13,North,350,5.0,10.0,95,0.00,,,0.00,,2013-04-03 13:22:00,
2013-04-03 09:32:00,54.0,53.0,30.14,NNE,20,3.0,10.0,95,0.00,,,0.00,,2013-04-03 13:32:00,
2013-04-03 09:42:00,54.0,53.0,30.14,NNE,20,3.0,10.0,95,0.00,,,0.00,,2013-04-03 13:42:00,
2013-04-03 09:52:00,56.0,53.0,30.13,North,2,5.0,12.0,91,0.00,,,0.00,,2013-04-03 13:52:00,
2013-04-03 10:02:00,57.0,54.0,30.14,NNE,12,5.0,12.0,90,0.00,,,0.00,,2013-04-03 14:02:00,
2013-04-03 10:13:00,57.0,54.0,30.14,NNE,12,5.0,12.0,90,0.00,,,0.00,,2013-04-03 14:13:00,
2013-04-03 10:22:00,58.0,54.0,30.14,NNE,12,3.0,9.0,86,0.00,,,0.00,,2013-04-03 14:22:00,
2013-04-03 10:32:00,59.0,54.0,30.14,NNW,345,6.0,10.0,84,0.00,,,0.00,,2013-04-03 14:32:00,
2013-04-03 10:43:00,59.0,54.0,30.14,NNW,345,6.0,10.0,84,0.00,,,0.00,,2013-04-03 14:43:00,
2013-04-03 10:52:00,61.0,55.0,30.14,NE,41,5.0,12.0,80,0.00,,,0.00,,2013-04-03 14:52:00,
2013-04-03 11:02:00,62.0,55.0,30.14,NE,44,3.0,9.0,78,0.00,,,0.00,,2013-04-03 15:02:00,
2013-04-03 11:12:00,62.0,55.0,30.14,NE,44,3.0,9.0,78,0.00,,,0.00,,2013-04-03 15:12:00,
2013-04-03 11:23:00,63.0,54.0,30.14,NNW,346,5.0,12.0,73,0.00,,,0.00,,2013-04-03 15:23:00,
2013-04-03 11:33:00,64.0,55.0,30.15,NE,46,3.0,12.0,73,0.00,,,0.00,,2013-04-03 15:33:00,
2013-04-03 11:43:00,64.0,55.0,30.15,NE,46,3.0,12.0,73,0.00,,,0.00,,2013-04-03 15:43:00,
2013-04-03 11:53:00,66.0,55.0,30.16,NNE,20,5.0,9.0,68,0.00,,,0.00,,2013-04-03 15:53:00,
2013-04-03 12:03:00,66.0,55.0,30.15,NNW,347,6.0,10.0,68,0.00,,,0.00,,2013-04-03 16:03:00,
2013-04-03 12:13:00,66.0,55.0,30.15,NNW,347,6.0,10.0,68,0.00,,,0.00,,2013-04-03 16:13:00,
2013-04-03 12:25:00,67.0,55.0,30.15,North,353,4.0,9.0,65,0.00,,,0.00,,2013-04-03 16:25:00,
2013-04-03 12:33:00,68.0,55.0,30.15,NE,45,4.0,7.0,63,0.00,,,0.00,,2013-04-03 16:33:00,
2013-04-03 12:44:00,68.0,55.0,30.15,NE,45,4.0,7.0,63,0.00,,,0.00,,2013-04-03 16:44:00,
2013-04-03 12:53:00,69.0,57.0,30.14,ESE,108,5.0,12.0,65,0.00,,,0.00,,2013-04-03 16:53:00,
2013-04-03 13:03:00,69.0,57.0,30.14,East,79,3.0,9.0,65,0.00,,,0.00,,2013-04-03 17:03:00,
2013-04-03 13:14:00,69.0,57.0,30.14,East,79,3.0,9.0,65,0.00,,,0.00,,2013-04-03 17:14:00,
2013-04-03 13:23:00,67.0,55.0,30.14,ENE,77,5.0,14.0,66,0.00,,,0.00,,2013-04-03 17:23:00,
2013-04-03 13:33:00,67.0,55.0,30.13,East,99,7.0,14.0,65,0.00,,,0.00,,2013-04-03 17:33:00,
2013-04-03 13:46:00,67.0,55.0,30.13,East,99,7.0,14.0,65,0.00,,,0.00,,2013-04-03 17:46:00,
2013-04-03 13:54:00,66.0,53.0,30.13,SE,141,4.0,15.0,63,0.00,,,0.00,,2013-04-03 17:54:00,
2013-04-03 14:02:00,66.0,52.0,30.13,NNE,27,5.0,17.0,60,0.00,,,0.00,,2013-04-03 18:02:00,
2013-04-03 14:13:00,66.0,52.0,30.13,NNE,27,5.0,17.0,60,0.00,,,0.00,,2013-04-03 18:13:00,
2013-04-03 14:23:00,64.0,50.0,30.13,ENE,62,5.0,15.0,60,0.00,,,0.00,,2013-04-03 18:23:00,
2013-04-03 14:33:00,64.0,49.0,30.13,SE,138,7.0,16.0,59,0.00,,,0.00,,2013-04-03 18:33:00,
2013-04-03 14:43:00,64.0,49.0,30.13,SE,138,7.0,16.0,59,0.00,,,0.00,,2013-04-03 18:43:00,
2013-04-03 14:52:00,63.0,49.0,30.13,East,94,6.0,15.0,60,0.00,,,0.00,,2013-04-03 18:52:00,
2013-04-03 15:03:00,62.0,47.0,30.13,ENE,71,7.0,17.0,58,0.00,,,0.00,,2013-04-03 19:03:00,
2013-04-03 15:12:00,62.0,47.0,30.13,ENE,71,7.0,17.0,58,0.00,,,0.00,,2013-04-03 19:12:00,
2013-04-03 15:22:00,61.0,47.0,30.14,ENE,65,7.0,15.0,60,0.00,,,0.00,,2013-04-03 19:22:00,
2013-04-03 15:32:00,61.0,47.0,30.14,NNE,22,4.0,18.0,60,0.00,,,0.00,,2013-04-03 19:32:00,
2013-04-03 15:42:00,61.0,47.0,30.14,NNE,22,4.0,18.0,60,0.00,,,0.00,,2013-04-03 19:42:00,
2013-04-03 15:52:00,60.0,46.0,30.14,ENE,59,6.0,18.0,59,0.00,,,0.00,,2013-04-03 19:52:00,
2013-04-03 16:02:00,60.0,45.0,30.13,ESE,106,6.0,14.0,58,0.00,,,0.00,,2013-04-03 20:02:00,
2013-04-03 16:13:00,60.0,45.0,30.13,ESE,106,6.0,14.0,58,0.00,,,0.00,,2013-04-03 20:13:00,
2013-04-03 16:23:00,60.0,46.0,30.13,NNE,15,5.0,12.0,60,0.00,,,0.00,,2013-04-03 20:23:00,
2013-04-03 16:33:00,59.0,45.0,30.13,East,83,5.0,14.0,60,0.00,,,0.00,,2013-04-03 20:33:00,
2013-04-03 16:42:00,59.0,45.0,30.13,East,83,5.0,14.0,60,0.00,,,0.00,,2013-04-03 20:42:00,
2013-04-03 16:53:00,59.0,45.0,30.13,ESE,105,5.0,15.0,60,0.00,,,0.00,,2013-04-03 20:53:00,
2013-04-03 17:02:00,59.0,46.0,30.14,ENE,65,5.0,14.0,61,0.00,,,0.00,,2013-04-03 21:02:00,
2013-04-03 17:12:00,59.0,46.0,30.14,ENE,65,5.0,14.0,61,0.00,,,0.00,,2013-04-03 21:12:00,
2013-04-03 17:22:00,59.0,46.0,30.14,NE,49,7.0,15.0,61,0.00,,,0.00,,2013-04-03 21:22:00,
2013-04-03 17:33:00,59.0,45.0,30.14,NE,42,5.0,15.0,60,0.00,,,0.00,,2013-04-03 21:33:00,
2013-04-03 17:42:00,59.0,45.0,30.14,NE,42,5.0,15.0,60,0.00,,,0.00,,2013-04-03 21:42:00,
2013-04-03 17:52:00,58.0,45.0,30.14,ENE,57,5.0,16.0,61,0.00,,,0.00,,2013-04-03 21:52:00,
2013-04-03 18:02:00,58.0,45.0,30.14,NNE,29,3.0,13.0,62,0.00,,,0.00,,2013-04-03 22:02:00,
2013-04-03 18:13:00,58.0,45.0,30.14,NNE,29,3.0,13.0,62,0.00,,,0.00,,2013-04-03 22:13:00,
2013-04-03 18:22:00,58.0,45.0,30.14,NNE,25,4.0,12.0,62,0.00,,,0.00,,2013-04-03 22:22:00,
2013-04-03 18:33:00,58.0,45.0,30.15,NE,35,5.0,12.0,62,0.00,,,0.00,,2013-04-03 22:33:00,
2013-04-03 18:42:00,58.0,45.0,30.15,NE,35,5.0,12.0,62,0.00,,,0.00,,2013-04-03 22:42:00,
2013-04-03 18:52:00,57.0,45.0,30.15,NNE,15,5.0,17.0,63,0.00,,,0.00,,2013-04-03 22:52:00,
2013-04-03 19:02:00,57.0,45.0,30.15,ENE,71,3.0,12.0,63,0.00,,,0.00,,2013-04-03 23:02:00,
2013-04-03 19:12:00,57.0,45.0,30.15,ENE,71,3.0,12.0,63,0.00,,,0.00,,2013-04-03 23:12:00,
2013-04-03 19:22:00,57.0,45.0,30.15,NE,47,3.0,10.0,64,0.00,,,0.00,,2013-04-03 23:22:00,
2013-04-03 19:32:00,57.0,45.0,30.15,NE,52,3.0,12.0,65,0.00,,,0.00,,2013-04-03 23:32:00,
2013-04-03 19:43:00,57.0,45.0,30.15,NE,52,3.0,12.0,65,0.00,,,0.00,,2013-04-03 23:43:00,
2013-04-03 19:54:00,57.0,46.0,30.16,ENE,61,2.0,12.0,66,0.00,,,0.00,,2013-04-03 23:54:00,
2013-04-03 20:03:00,57.0,46.0,30.16,East,80,6.0,12.0,67,0.00,,,0.00,,2013-04-04 00:03:00,
2013-04-03 20:12:00,57.0,46.0,30.16,East,80,6.0,12.0,67,0.00,,,0.00,,2013-04-04 00:12:00,
2013-04-03 20:22:00,57.0,47.0,30.17,East,92,2.0,9.0,69,0.00,,,0.00,,2013-04-04 00:22:00,
2013-04-03 20:32:00,57.0,47.0,30.17,ENE,71,4.0,12.0,70,0.00,,,0.00,,2013-04-04 00:32:00,
2013-04-03 20:43:00,57.0,47.0,30.17,ENE,71,4.0,12.0,70,0.00,,,0.00,,2013-04-04 00:43:00,
2013-04-03 20:52:00,57.0,48.0,30.17,ENE,64,2.0,10.0,71,0.00,,,0.00,,2013-04-04 00:52:00,
2013-04-03 21:02:00,56.0,47.0,30.18,NNE,14,4.0,10.0,72,0.00,,,0.00,,2013-04-04 01:02:00,
2013-04-03 21:12:00,56.0,47.0,30.18,NNE,14,4.0,10.0,72,0.00,,,0.00,,2013-04-04 01:12:00,
2013-04-03 21:22:00,56.0,47.0,30.17,NE,56,2.0,13.0,73,0.00,,,0.00,,2013-04-04 01:22:00,
2013-04-03 21:32:00,56.0,47.0,30.18,East,89,3.0,9.0,73,0.00,,,0.00,,2013-04-04 01:32:00,
2013-04-03 21:43:00,56.0,47.0,30.18,East,89,3.0,9.0,73,0.00,,,0.00,,2013-04-04 01:43:00,
2013-04-03 21:53:00,57.0,48.0,30.18,NNE,20,2.0,7.0,73,0.00,,,0.00,,2013-04-04 01:53:00,
2013-04-03 22:02:00,56.0,47.0,30.18,ENE,57,5.0,10.0,72,0.00,,,0.00,,2013-04-04 02:02:00,
2013-04-03 22:12:00,56.0,47.0,30.18,ENE,57,5.0,10.0,72,0.00,,,0.00,,2013-04-04 02:12:00,
2013-04-03 22:22:00,56.0,47.0,30.18,NE,39,3.0,12.0,72,0.00,,,0.00,,2013-04-04 02:22:00,
2013-04-03 22:32:00,56.0,47.0,30.18,NNE,33,3.0,12.0,72,0.00,,,0.00,,2013-04-04 02:32:00,
2013-04-03 22:42:00,56.0,47.0,30.18,NNE,33,3.0,12.0,72,0.00,,,0.00,,2013-04-04 02:42:00,
2013-04-03 22:53:00,56.0,47.0,30.18,NNE,33,3.0,12.0,72,0.00,,,0.00,,2013-04-04 02:53:00,
2013-04-03 23:02:00,56.0,47.0,30.18,NE,39,3.0,13.0,71,0.00,,,0.00,,2013-04-04 03:02:00,
2013-04-03 23:12:00,56.0,47.0,30.18,NE,39,3.0,13.0,71,0.00,,,0.00,,2013-04-04 03:12:00,
2013-04-03 23:23:00,56.0,46.0,30.19,NE,45,5.0,14.0,70,0.00,,,0.00,,2013-04-04 03:23:00,
2013-04-03 23:33:00,56.0,46.0,30.19,North,9,4.0,10.0,69,0.00,,,0.00,,2013-04-04 03:33:00,
2013-04-03 23:45:00,56.0,46.0,30.19,North,9,4.0,10.0,69,0.00,,,0.00,,2013-04-04 03:45:00,
2013-04-03 23:53:00,56.0,46.0,30.19,East,82,3.0,12.0,69,0.00,,,0.00,,2013-04-04 03:53:00,